Ride Results

Easter Sassafras (19-04-2019)
Ride distance: 80.0 km

Outcomes - Easter Sassafras (19-04-2019)
Division No. of Entries Retired / DNE Completed Withdrawn Ineligible V/O Percentage Completed
HW 5 - 4 - - 1 80.00%
MW 5 - 4 - - 1 80.00%
LW 14 - 11 1 - 2 78.57%
JN 3 - 3 - - - 100.00%
Totals 27 - 22 1 - 4 81.48%
Results - Easter Sassafras (19-04-2019)
No. Rider Horse Place Time Leg Speeds Total
Km/Hr
H/R bpm
Heavyweight
38 Tony Purton Beer Street Bewitched 1 (BC) 5:31:01 17.5, 12.3 14.50 32, 52, 44 (Avg:48)
272 Greg Cowen Red Foo 2 6:21:01 13.1, 12.0 12.60 35, 48, 52 (Avg:50)
171 Craig Wall Miss Mika 3 6:42:19 13.1, 10.8 11.93 43, 51, 52 (Avg:51)
14 Philip Gerke Spartacus 4 7:25:09 11.6, 10.0 10.78 35, 47, 48 (Avg:47)
18 Sheleah Astell Pye Park Cygnet Heart Rate L2 0:00:00 12.2, 10.1 - 42, 60, 66 (Avg:63)
Middleweight
101 Wendy Rand Shayelle Georgia 1 (BC) 5:03:16 17.3, 14.5 15.83 40, 53, 51 (Avg:52)
136 Kaye Mitchell Beer Street Dezhda 2 5:52:55 14.2, 13.0 13.60 33, 48, 48 (Avg:48)
99 Heather Johnson Black Heart Dashar 3 6:07:55 14.5, 11.8 13.05 33, 53, 52 (Avg:52)
68 Janine Parr Janarr Shimmering Surprise 4 7:17:12 10.2, 11.8 10.98 32, 41, 52 (Avg:46)
179 Debbie Grull Highland View Chelsea Lame L1 0:00:00 10.4 - 40, 55 (Avg:55)
Lightweight
74 Felicity Perry Wattlewood Park Kalee 1 (BC) 4:39:10 17.5, 16.8 17.19 50, 57, 56 (Avg:56)
57 Tania Jago Dat Murphy 2 6:02:40 14.1, 12.4 13.24 37, 52, 50 (Avg:51)
113 Kirstie Lockhart Lockleigh Park Magic Miss 3 6:17:16 13.1, 12.3 12.72 34, 46, 46 (Avg:46)
80 Emma Gelb Archerville Cimarron 4 6:17:21 13.1, 12.3 12.72 37, 48, 51 (Avg:49)
305 Julie Carter Beer Street Alice M 5 6:33:36 11.3, 13.1 12.20 55, 48, 50 (Avg:49)
54 Brooke McKenna Sierra Lodge Elysium Gold 6 6:42:46 13.1, 10.8 11.92 38, 52, 48 (Avg:50)
90 Angela Hawks Henley Farm Dhahabi 7 6:56:06 11.4, 11.6 11.54 34, 56, 48 (Avg:52)
308 Ella Carter Highland View Dominican 8 6:56:23 11.4, 11.6 11.53 33, 44, 48 (Avg:46)
150 Emily Shadbolt Opalo FF 9 6:56:24 11.4, 11.6 11.53 32, 44, 54 (Avg:49)
50 Hayley Marshall Rivergum Starlight 10 7:04:34 11.4, 11.1 11.31 31, 39, 36 (Avg:37)
163 Lydia Rigby Z'lights Giselle 11 7:20:03 12.5, 9.6 10.91 34, 43, 48 (Avg:45)
192 Pia Kloppmann Shemali Silver Sherif Heart Rate L2 0:00:00 11.3, 11.0 - 28, 48, 63 (Avg:55)
42 Dianne Walsh Sweet Chilli Philly W/D after vetting L1 0:00:00 - - 28, 44 (Avg:44)
225 Jane Walsh Dynamo Lame L1 0:00:00 11.8 - 36, 42 (Avg:42)
Junior
284 Abbey Ayers Samosa 1 (BC) 6:09:26 12.9, 13.0 12.99 37, 48, 58 (Avg:53)
330 Matilda Rockliff Beer Street Witch Hunter 2 6:35:49 11.7, 12.5 12.13 33, 44, 50 (Avg:47)
306 Jessica Goulding Beer Street Riversong 3 7:13:15 11.5, 10.6 11.08 40, 48, 49 (Avg:48)